Batavia, NY (14020)

1:18 AM EST on February 09, 2016 (GMT -0500)
Park Rd | | Change Station
CLOSE
Current Station
Personal Weather Station
Location: Batavia, NY
Elevation: 932 ft
Nearby Weather Stations

Elev 932 ft 43.01 °N, 78.20 °W | Updated 16 seconds ago

Snow
Snow
32.0 °F
Feels Like 29 °F
N
3.3
Wind Variable Wind from East
Gusts 5.0 mph

Today
High -- | Low -- °F
--% Chance of Precip.
Yesterday
High -- | Low -- °F
Precip. -- in
Pressure 29.55 in
Visibility 3.0 miles
Clouds Few 400 ft
Scattered Clouds 1800 ft
Overcast 2300 ft
Windchill 29 °F
Dew Point 31 °F
Humidity 94%
Rainfall 0.00 in
Snow Depth Not available.
7:18 AM 5:35 PM
New Moon, 1% visible
METAR KBUF 090554Z 11005KT 3SM -SN BR FEW004 SCT018 OVC023 01/M01 A2953 RMK AO2 RAE48 SLP005 P0002 60003 T00061006 10039 20006 56013
Pressure 29.55 in
Visibility 3.0 miles
Clouds Few 400 ft
Scattered Clouds 1800 ft
Overcast 2300 ft
Windchill 29 °F
Dew Point 31 °F
Humidity 94%
Rainfall 0.00 in
Snow Depth Not available.
7:18 AM 5:35 PM
New Moon, 1% visible
METAR KBUF 090554Z 11005KT 3SM -SN BR FEW004 SCT018 OVC023 01/M01 A2953 RMK AO2 RAE48 SLP005 P0002 60003 T00061006 10039 20006 56013

10-Day Weather Forecast

Almanac

Astronomy

Feb. 09, 2016 Rise Set
Actual Time
Civil Twilight
Nautical Twilight
Astronomical Twilight
Moon
Length of Visible Light
Length of Day
Tomorrow will be .
, % of the Moon is Illuminated

Today's Extremes

State Highs State Lows

Community

WunderPhotos

Upload Photos

1,891,571 photos uploaded!

WunderBlog® & News

Nearby

Air Quality

  Air Quality AQ Index Pollutant
Not available.

Snow Depth

Station Depth Elevation

Earthquake Activity

City Distance Mag. Time & Date
Minimum magnitude displayed is 2.5.

Coastal Water Temperatures

Place Temperature

Stations

Nearby Weather Stations

Station Location Temp. Windchill Dew Point Humidity Wind Precip. Elev Updated Type
                   

Watches & Warnings

There are currently no watches in effect.